createdAt,value
2022-11-26T00:02:30.456Z,45.90
2022-11-26T00:05:00.016Z,39.00
2022-11-26T00:07:30.347Z,51.33
2022-11-26T00:09:59.603Z,48.90
2022-11-26T00:12:34.589Z,52.20
2022-11-26T00:15:25.380Z,52.60
2022-11-26T00:17:54.165Z,52.53
2022-11-26T00:20:28.456Z,57.17
2022-11-26T00:23:01.589Z,61.33
2022-11-26T00:25:41.006Z,59.67
2022-11-26T00:28:30.005Z,66.60
2022-11-26T00:31:04.232Z,65.87
2022-11-26T00:33:32.780Z,68.53
2022-11-26T00:36:22.196Z,71.30
2022-11-26T00:38:57.511Z,67.30
2022-11-26T00:41:31.808Z,66.67
2022-11-26T00:43:59.333Z,60.07
2022-11-26T00:46:26.969Z,56.00
2022-11-26T00:48:54.389Z,56.70
2022-11-26T00:51:28.247Z,58.27
2022-11-26T00:53:59.845Z,54.03
2022-11-26T00:56:27.985Z,58.40
2022-11-26T00:58:55.638Z,51.63
2022-11-26T01:01:28.904Z,54.37
2022-11-26T01:03:58.520Z,52.30
2022-11-26T01:06:30.792Z,54.70
2022-11-26T01:08:58.551Z,57.20
2022-11-26T01:11:26.516Z,55.27
2022-11-26T01:13:55.203Z,59.83
2022-11-26T01:16:25.958Z,52.93
2022-11-26T01:18:56.602Z,51.43
2022-11-26T01:21:26.599Z,49.07
2022-11-26T01:23:54.465Z,48.93
2022-11-26T01:26:28.601Z,59.30
2022-11-26T01:28:56.447Z,55.20
2022-11-26T01:31:27.662Z,45.50
2022-11-26T01:33:55.894Z,50.00
2022-11-26T01:36:29.238Z,45.83
2022-11-26T01:39:04.181Z,46.90
2022-11-26T01:42:26.153Z,46.93
2022-11-26T01:44:53.624Z,46.33
2022-11-26T01:47:25.054Z,48.23
2022-11-26T01:50:29.246Z,46.80
2022-11-26T01:53:02.907Z,41.53
2022-11-26T01:55:56.674Z,41.43
2022-11-26T01:58:40.217Z,43.77
2022-11-26T02:01:08.370Z,42.87
2022-11-26T02:04:03.562Z,43.47
2022-11-26T02:06:34.441Z,44.37
2022-11-26T02:09:06.214Z,40.40
2022-11-26T02:11:33.801Z,40.37
2022-11-26T02:14:18.396Z,39.13
2022-11-26T02:17:10.773Z,40.27
2022-11-26T02:20:11.798Z,41.47
2022-11-26T02:23:03.279Z,42.63
2022-11-26T02:26:32.635Z,36.13
2022-11-26T02:29:10.968Z,35.87
2022-11-26T02:32:14.411Z,37.13
2022-11-26T02:34:56.097Z,34.17
2022-11-26T02:37:34.683Z,35.70
2022-11-26T02:40:02.468Z,34.50
2022-11-26T02:42:32.853Z,35.23
2022-11-26T02:45:10.970Z,36.63
2022-11-26T02:47:42.973Z,32.70
2022-11-26T02:50:20.918Z,31.13
2022-11-26T02:52:50.880Z,30.70
2022-11-26T02:55:24.447Z,32.03
2022-11-26T02:57:52.963Z,31.93
2022-11-26T03:00:20.997Z,29.97
2022-11-26T03:03:17.258Z,28.23
2022-11-26T03:05:44.827Z,30.53
2022-11-26T03:08:12.343Z,28.27
2022-11-26T03:10:39.833Z,29.33
2022-11-26T03:13:07.293Z,27.23
2022-11-26T03:15:34.721Z,28.43
2022-11-26T03:18:02.091Z,28.80
2022-11-26T03:20:29.552Z,31.20
2022-11-26T03:22:57.046Z,29.40
2022-11-26T03:25:24.489Z,32.17
2022-11-26T03:27:51.981Z,31.67
2022-11-26T03:30:19.527Z,30.67
2022-11-26T03:32:46.923Z,30.73
2022-11-26T03:35:14.435Z,29.00
2022-11-26T03:37:41.860Z,31.70
2022-11-26T03:40:10.285Z,30.00
2022-11-26T03:42:37.944Z,27.40
2022-11-26T03:45:06.384Z,27.93
2022-11-26T03:47:33.981Z,29.07
2022-11-26T03:50:01.531Z,32.77
2022-11-26T03:52:28.934Z,33.83
2022-11-26T03:54:56.837Z,32.67
2022-11-26T03:57:24.444Z,33.60
2022-11-26T03:59:51.963Z,34.57
2022-11-26T04:02:19.456Z,36.23
2022-11-26T04:04:46.883Z,37.07
2022-11-26T04:07:14.352Z,34.17
2022-11-26T04:09:41.881Z,34.43
2022-11-26T04:12:09.279Z,32.87
2022-11-26T04:14:37.044Z,32.50
2022-11-26T04:17:04.803Z,33.53
2022-11-26T04:19:32.390Z,32.17
2022-11-26T04:21:59.792Z,31.27
2022-11-26T04:24:27.366Z,31.57
2022-11-26T04:26:54.776Z,33.60
2022-11-26T04:29:22.206Z,31.63
2022-11-26T04:31:49.772Z,35.40
2022-11-26T04:34:17.301Z,35.17
2022-11-26T04:36:44.716Z,33.93
2022-11-26T04:39:12.833Z,32.57
2022-11-26T04:41:40.300Z,32.27
2022-11-26T04:44:07.848Z,30.33
2022-11-26T04:46:35.388Z,32.90
2022-11-26T04:49:02.874Z,30.43
2022-11-26T04:51:30.648Z,30.33
2022-11-26T04:54:01.701Z,28.03
2022-11-26T04:56:30.542Z,28.90
2022-11-26T04:58:58.038Z,28.37
2022-11-26T05:01:25.558Z,29.80
2022-11-26T05:03:53.031Z,29.03
2022-11-26T05:06:20.451Z,30.50
2022-11-26T05:08:47.856Z,29.40
2022-11-26T05:11:15.293Z,33.23
2022-11-26T05:13:43.061Z,31.33
2022-11-26T05:16:10.697Z,35.60
2022-11-26T05:18:38.207Z,37.70
2022-11-26T05:21:06.984Z,39.67
2022-11-26T05:23:34.905Z,37.03
2022-11-26T05:26:02.304Z,34.43
2022-11-26T05:28:29.717Z,36.43
2022-11-26T05:31:02.283Z,37.03
2022-11-26T05:33:29.978Z,36.70
2022-11-26T05:35:57.389Z,34.07
2022-11-26T05:38:24.925Z,32.63
2022-11-26T05:40:52.399Z,32.50
2022-11-26T05:43:20.000Z,30.83
2022-11-26T05:45:47.497Z,24.47
2022-11-26T05:48:15.139Z,25.97
2022-11-26T05:50:42.666Z,23.13
2022-11-26T05:53:10.093Z,20.73
2022-11-26T05:55:37.576Z,23.63
2022-11-26T05:58:05.130Z,23.50
2022-11-26T06:00:32.573Z,22.47
2022-11-26T06:03:00.099Z,21.90
2022-11-26T06:05:27.715Z,21.57
2022-11-26T06:07:55.183Z,20.07
2022-11-26T06:10:22.679Z,21.10
2022-11-26T06:12:50.159Z,19.90
2022-11-26T06:15:17.736Z,20.33
2022-11-26T06:17:45.220Z,19.93
2022-11-26T06:20:13.477Z,21.83
2022-11-26T06:22:43.129Z,19.13
2022-11-26T06:25:14.143Z,25.17
2022-11-26T06:27:42.535Z,25.50
2022-11-26T06:30:11.682Z,26.50
2022-11-26T06:32:39.087Z,29.87
2022-11-26T06:35:06.854Z,22.17
2022-11-26T06:37:34.332Z,22.20
2022-11-26T06:40:01.909Z,19.63
2022-11-26T06:42:29.898Z,16.90
2022-11-26T06:45:00.006Z,17.03
2022-11-26T06:47:27.956Z,18.27
2022-11-26T06:49:55.361Z,17.47
2022-11-26T06:52:22.851Z,17.03
2022-11-26T06:54:50.412Z,16.43
2022-11-26T06:57:17.895Z,15.87
2022-11-26T06:59:45.287Z,14.00
2022-11-26T07:02:12.756Z,14.53
2022-11-26T07:04:40.559Z,14.30
2022-11-26T07:07:08.520Z,12.80
2022-11-26T07:09:35.997Z,14.43
2022-11-26T07:12:03.533Z,13.57
2022-11-26T07:14:31.001Z,13.63
2022-11-26T07:16:58.471Z,12.20
2022-11-26T07:19:26.565Z,12.83
2022-11-26T07:21:54.519Z,12.83
2022-11-26T07:24:21.920Z,12.80
2022-11-26T07:26:49.462Z,12.77
2022-11-26T07:29:16.975Z,12.10
2022-11-26T07:31:44.432Z,12.43
2022-11-26T07:34:11.883Z,12.73
2022-11-26T07:36:43.239Z,12.83
2022-11-26T07:39:12.150Z,14.67
2022-11-26T07:41:39.733Z,10.83
2022-11-26T07:44:07.183Z,12.10
2022-11-26T07:46:34.667Z,14.30
2022-11-26T07:49:02.355Z,12.20
2022-11-26T07:51:32.603Z,10.67
2022-11-26T07:54:05.264Z,11.77
2022-11-26T07:56:32.859Z,11.33
2022-11-26T07:59:00.951Z,12.03
2022-11-26T08:01:32.464Z,10.93
2022-11-26T08:04:04.716Z,11.87
2022-11-26T08:06:33.656Z,12.23
2022-11-26T08:09:02.600Z,11.87
2022-11-26T08:11:32.808Z,11.60
2022-11-26T08:14:06.738Z,11.83
2022-11-26T08:16:34.584Z,9.83
2022-11-26T08:19:12.732Z,10.67
2022-11-26T08:21:40.987Z,10.73
2022-11-26T08:24:13.901Z,10.10
2022-11-26T08:26:44.161Z,9.27
2022-11-26T08:29:13.858Z,9.97
2022-11-26T08:31:45.553Z,9.93
2022-11-26T08:34:16.330Z,9.33
2022-11-26T08:36:45.194Z,11.13
2022-11-26T08:39:17.938Z,12.40
2022-11-26T08:41:50.580Z,10.03
2022-11-26T08:44:19.803Z,11.07
2022-11-26T08:46:47.450Z,9.37
2022-11-26T08:49:15.371Z,10.33
2022-11-26T08:51:43.883Z,9.97
2022-11-26T08:54:12.100Z,8.87
2022-11-26T08:56:39.629Z,9.23
2022-11-26T08:59:07.048Z,9.23
2022-11-26T09:01:34.938Z,7.67
2022-11-26T09:04:04.195Z,7.93
2022-11-26T09:06:36.853Z,6.77
2022-11-26T09:09:15.448Z,7.10
2022-11-26T09:11:57.698Z,5.33
2022-11-26T09:14:28.670Z,6.53
2022-11-26T09:16:57.830Z,6.07
2022-11-26T09:19:27.074Z,4.90
2022-11-26T09:21:55.129Z,6.07
2022-11-26T09:24:23.280Z,4.93
2022-11-26T09:26:51.111Z,4.57
2022-11-26T09:29:22.229Z,5.00
2022-11-26T09:32:21.250Z,6.13
2022-11-26T09:34:39.337Z,5.20
2022-11-26T09:37:07.881Z,5.83
2022-11-26T09:39:35.364Z,6.17
2022-11-26T09:42:27.951Z,6.30
2022-11-26T09:45:29.285Z,7.40
2022-11-26T09:47:57.102Z,9.33
2022-11-26T09:50:31.854Z,13.17
2022-11-26T09:53:27.330Z,10.77
2022-11-26T09:55:56.845Z,12.03
2022-11-26T09:58:57.874Z,13.20
2022-11-26T10:01:25.820Z,13.70
2022-11-26T10:03:53.558Z,11.93
2022-11-26T10:06:45.040Z,12.07
2022-11-26T10:09:30.307Z,10.47
2022-11-26T10:12:24.972Z,11.37
2022-11-26T10:15:14.612Z,11.37
2022-11-26T10:18:04.147Z,13.63
2022-11-26T10:20:37.271Z,12.07
2022-11-26T10:23:13.530Z,11.97
2022-11-26T10:25:52.861Z,13.83
2022-11-26T10:28:40.477Z,13.83
2022-11-26T10:31:26.600Z,14.20
2022-11-26T10:34:04.560Z,20.13
2022-11-26T10:36:41.877Z,15.03
2022-11-26T10:39:17.034Z,12.40
2022-11-26T10:41:45.229Z,17.70
2022-11-26T10:44:41.540Z,13.50
2022-11-26T10:47:31.002Z,14.00
2022-11-26T10:50:19.197Z,16.93
2022-11-26T10:52:55.019Z,17.43
2022-11-26T10:55:30.776Z,16.80
2022-11-26T10:58:15.335Z,19.23
2022-11-26T11:00:49.601Z,22.63
2022-11-26T11:03:38.523Z,24.03
2022-11-26T11:06:19.127Z,25.00
2022-11-26T11:08:52.520Z,24.17
2022-11-26T11:11:21.170Z,26.03
2022-11-26T11:13:49.562Z,32.23
2022-11-26T11:16:50.640Z,26.77
2022-11-26T11:19:28.295Z,30.07
2022-11-26T11:21:55.894Z,27.87
2022-11-26T11:24:28.790Z,27.97
2022-11-26T11:27:00.441Z,28.13
2022-11-26T11:29:37.306Z,26.63
2022-11-26T11:32:09.734Z,22.73
2022-11-26T11:34:43.057Z,26.53
2022-11-26T11:37:23.918Z,24.67
2022-11-26T11:40:09.207Z,25.70
2022-11-26T11:42:40.639Z,26.43
2022-11-26T11:45:28.636Z,27.13
2022-11-26T11:48:04.702Z,27.23
2022-11-26T11:50:46.929Z,26.93
2022-11-26T11:53:39.385Z,26.87
2022-11-26T11:56:34.328Z,27.10
2022-11-26T11:59:25.295Z,24.50
2022-11-26T12:02:21.452Z,23.83
2022-11-26T12:04:58.361Z,23.93
2022-11-26T12:07:57.276Z,22.33
2022-11-26T12:11:06.110Z,23.13
2022-11-26T12:13:48.050Z,22.60
2022-11-26T12:16:18.123Z,26.03
2022-11-26T12:19:02.766Z,23.87
2022-11-26T12:21:54.585Z,22.60
2022-11-26T12:24:46.672Z,23.77
2022-11-26T12:27:33.697Z,26.90
2022-11-26T12:30:38.943Z,22.17
2022-11-26T12:33:20.811Z,22.77
2022-11-26T12:36:01.573Z,21.00
2022-11-26T12:38:40.255Z,19.00
2022-11-26T12:41:43.389Z,22.07
2022-11-26T12:44:42.688Z,24.27
2022-11-26T12:47:18.848Z,24.33
2022-11-26T12:50:03.541Z,23.37
2022-11-26T12:53:14.014Z,22.87
2022-11-26T12:55:54.154Z,23.90
2022-11-26T12:58:56.508Z,23.47
2022-11-26T13:01:24.550Z,23.27
2022-11-26T13:04:03.360Z,21.50
2022-11-26T13:07:23.608Z,22.90
2022-11-26T13:10:02.912Z,19.83
2022-11-26T13:13:00.501Z,19.27
2022-11-26T13:16:11.223Z,20.50
2022-11-26T13:18:46.775Z,23.57
2022-11-26T13:21:41.425Z,20.33
2022-11-26T13:24:23.795Z,22.03
2022-11-26T13:27:37.232Z,19.53
2022-11-26T13:30:21.417Z,21.47
2022-11-26T13:33:27.697Z,21.60
2022-11-26T13:36:18.863Z,22.13
2022-11-26T13:38:52.658Z,28.63
2022-11-26T13:42:10.121Z,25.43
2022-11-26T13:44:47.428Z,24.13
2022-11-26T13:47:37.477Z,23.60
2022-11-26T13:50:10.606Z,22.80
2022-11-26T13:52:48.133Z,21.57
2022-11-26T13:55:51.444Z,20.47
2022-11-26T13:58:28.234Z,19.50
2022-11-26T14:00:55.725Z,22.07
2022-11-26T14:03:47.417Z,22.67
2022-11-26T14:06:15.803Z,21.50
2022-11-26T14:08:51.436Z,23.07
2022-11-26T14:11:40.487Z,22.10
2022-11-26T14:14:26.179Z,23.07
2022-11-26T14:17:02.990Z,22.00
2022-11-26T14:19:49.445Z,21.97
2022-11-26T14:22:22.517Z,21.63
2022-11-26T14:24:50.157Z,22.13
2022-11-26T14:27:33.660Z,21.90
2022-11-26T14:30:06.837Z,23.23
2022-11-26T14:33:11.372Z,22.53
2022-11-26T14:35:41.429Z,22.70
2022-11-26T14:38:26.133Z,22.70
2022-11-26T14:41:01.108Z,20.50
2022-11-26T14:43:29.552Z,26.33
2022-11-26T14:46:17.701Z,28.80
2022-11-26T14:48:48.405Z,44.10
2022-11-26T14:51:26.835Z,38.20
2022-11-26T14:53:56.080Z,27.40
2022-11-26T14:56:25.609Z,31.50
2022-11-26T14:58:56.724Z,58.27
2022-11-26T15:01:29.413Z,43.07
2022-11-26T15:04:06.280Z,35.70
2022-11-26T15:06:42.650Z,31.30
2022-11-26T15:09:20.076Z,31.30
2022-11-26T15:12:15.377Z,32.03
2022-11-26T15:14:54.768Z,30.17
2022-11-26T15:17:28.007Z,31.70
2022-11-26T15:20:00.047Z,34.47
2022-11-26T15:22:54.979Z,38.17
2022-11-26T15:25:26.513Z,57.90
2022-11-26T15:28:05.765Z,56.13
2022-11-26T15:30:38.514Z,36.83
2022-11-26T15:33:16.419Z,53.13
2022-11-26T15:35:44.189Z,40.70
2022-11-26T15:38:17.436Z,39.67
2022-11-26T15:40:51.663Z,39.40
2022-11-26T15:43:42.344Z,37.77
2022-11-26T15:46:13.074Z,42.27
2022-11-26T15:48:51.933Z,42.43
2022-11-26T15:51:47.464Z,59.97
2022-11-26T15:54:56.777Z,47.73
2022-11-26T15:57:31.600Z,41.37
2022-11-26T16:00:18.632Z,37.70
2022-11-26T16:02:46.149Z,39.70
2022-11-26T16:05:33.813Z,40.17
2022-11-26T16:08:05.681Z,42.87
2022-11-26T16:10:37.420Z,68.77
2022-11-26T16:13:16.947Z,51.57
2022-11-26T16:16:24.695Z,47.80
2022-11-26T16:19:04.561Z,59.37
2022-11-26T16:21:34.607Z,48.47
2022-11-26T16:24:22.044Z,81.43
2022-11-26T16:27:19.213Z,66.57
2022-11-26T16:29:47.297Z,122.00
2022-11-26T16:32:17.491Z,62.53
2022-11-26T16:34:46.041Z,81.37
2022-11-26T16:37:26.533Z,57.83
2022-11-26T16:40:03.042Z,57.50
2022-11-26T16:42:32.873Z,58.27
2022-11-26T16:45:04.202Z,56.67
2022-11-26T16:47:39.532Z,58.07
2022-11-26T16:50:16.726Z,65.77
2022-11-26T16:52:44.675Z,64.80
2022-11-26T16:55:14.628Z,56.63
2022-11-26T16:57:46.943Z,60.33
2022-11-26T17:00:21.463Z,63.27
2022-11-26T17:02:49.155Z,61.90
2022-11-26T17:05:17.852Z,64.97
2022-11-26T17:07:49.783Z,59.03
2022-11-26T17:10:30.627Z,54.57
2022-11-26T17:12:58.486Z,48.67
2022-11-26T17:15:25.916Z,51.93
2022-11-26T17:18:04.391Z,48.80
2022-11-26T17:20:36.892Z,47.07
2022-11-26T17:23:09.582Z,47.57
2022-11-26T17:25:37.037Z,46.83
2022-11-26T17:28:11.646Z,47.63
2022-11-26T17:30:40.465Z,47.27
2022-11-26T17:33:09.631Z,48.87
2022-11-26T17:35:38.119Z,52.27
2022-11-26T17:38:21.292Z,53.67
2022-11-26T17:40:49.175Z,48.53
2022-11-26T17:43:17.249Z,50.43
2022-11-26T17:45:44.859Z,49.20
2022-11-26T17:48:14.335Z,45.17
2022-11-26T17:50:42.842Z,41.27
2022-11-26T17:53:10.346Z,44.67
2022-11-26T17:55:38.471Z,47.47
2022-11-26T17:58:05.886Z,43.60
2022-11-26T18:00:33.383Z,45.47
2022-11-26T18:03:02.191Z,48.50
2022-11-26T18:05:29.668Z,49.27
2022-11-26T18:07:57.155Z,42.93
2022-11-26T18:10:24.862Z,44.10
2022-11-26T18:12:55.752Z,47.80
2022-11-26T18:15:26.777Z,56.97
2022-11-26T18:17:56.048Z,52.10
2022-11-26T18:20:28.985Z,51.90
2022-11-26T18:23:00.957Z,54.03
2022-11-26T18:25:30.013Z,54.40
2022-11-26T18:27:57.381Z,45.77
2022-11-26T18:30:25.464Z,56.57
2022-11-26T18:32:53.058Z,55.73
2022-11-26T18:35:20.509Z,51.90
2022-11-26T18:37:47.923Z,47.87
2022-11-26T18:40:17.926Z,46.70
2022-11-26T18:42:45.483Z,53.10
2022-11-26T18:45:16.040Z,56.13
2022-11-26T18:47:43.777Z,49.70
2022-11-26T18:50:13.822Z,42.63
2022-11-26T18:52:41.343Z,49.87
2022-11-26T18:55:09.927Z,51.40
2022-11-26T18:57:37.442Z,43.97
2022-11-26T19:00:07.186Z,48.97
2022-11-26T19:02:36.531Z,47.77
2022-11-26T19:05:05.335Z,55.03
2022-11-26T19:07:33.316Z,60.40
2022-11-26T19:10:00.804Z,56.27
2022-11-26T19:12:28.302Z,55.03
2022-11-26T19:14:55.698Z,53.30
2022-11-26T19:17:23.114Z,46.40
2022-11-26T19:19:50.494Z,47.47
2022-11-26T19:22:17.940Z,50.90
2022-11-26T19:24:45.365Z,51.83
2022-11-26T19:27:13.938Z,49.27
2022-11-26T19:29:41.647Z,57.80
2022-11-26T19:32:09.222Z,61.20
2022-11-26T19:34:37.019Z,57.70
2022-11-26T19:37:04.644Z,46.53
2022-11-26T19:39:32.515Z,57.50
2022-11-26T19:42:00.252Z,51.80
2022-11-26T19:44:27.636Z,53.03
2022-11-26T19:46:55.059Z,48.83
2022-11-26T19:49:22.966Z,53.33
2022-11-26T19:51:50.417Z,51.43
2022-11-26T19:54:17.888Z,55.23
2022-11-26T19:56:46.934Z,121.70
2022-11-26T19:59:16.074Z,65.23
2022-11-26T20:01:43.651Z,53.33
2022-11-26T20:04:16.161Z,51.60
2022-11-26T20:06:44.263Z,44.90
2022-11-26T20:09:14.169Z,42.20
2022-11-26T20:11:42.360Z,40.07
2022-11-26T20:14:10.839Z,39.30
2022-11-26T20:16:42.303Z,41.27
2022-11-26T20:19:11.315Z,40.80
2022-11-26T20:21:39.485Z,44.40
2022-11-26T20:24:12.716Z,45.33
2022-11-26T20:26:42.438Z,46.50
2022-11-26T20:29:13.892Z,50.03
2022-11-26T20:31:50.827Z,65.20
2022-11-26T20:34:23.788Z,63.93
2022-11-26T20:36:51.248Z,61.27
2022-11-26T20:39:22.411Z,75.77
2022-11-26T20:41:50.820Z,61.57
2022-11-26T20:44:18.475Z,56.90
2022-11-26T20:46:45.915Z,76.63
2022-11-26T20:49:16.101Z,75.47
2022-11-26T20:51:43.612Z,68.73
2022-11-26T20:54:11.075Z,63.53
2022-11-26T20:56:38.611Z,56.57
2022-11-26T20:59:09.000Z,51.40
2022-11-26T21:01:37.407Z,46.20
2022-11-26T21:04:05.213Z,53.00
2022-11-26T21:06:35.276Z,62.03
2022-11-26T21:09:05.693Z,61.80
2022-11-26T21:11:33.399Z,55.77
2022-11-26T21:14:01.878Z,53.73
2022-11-26T21:16:30.384Z,52.10
2022-11-26T21:18:58.844Z,53.53
2022-11-26T21:21:28.266Z,88.37
2022-11-26T21:23:57.535Z,111.27
2022-11-26T21:26:26.797Z,128.80
2022-11-26T21:28:59.417Z,123.60
2022-11-26T21:31:30.246Z,96.77
2022-11-26T21:34:04.249Z,85.90
2022-11-26T21:36:35.784Z,60.10
2022-11-26T21:39:06.778Z,55.80
2022-11-26T21:41:34.416Z,55.90
2022-11-26T21:44:04.088Z,87.10
2022-11-26T21:46:37.917Z,68.73
2022-11-26T21:49:06.458Z,55.23
2022-11-26T21:51:33.928Z,60.13
2022-11-26T21:54:01.323Z,50.97
2022-11-26T21:56:31.579Z,74.77
2022-11-26T21:59:00.822Z,82.80
2022-11-26T22:01:36.148Z,91.77
2022-11-26T22:04:08.450Z,79.40
2022-11-26T22:06:36.774Z,67.03
2022-11-26T22:09:05.744Z,57.07
2022-11-26T22:11:36.873Z,55.83
2022-11-26T22:14:05.913Z,49.23
2022-11-26T22:16:34.321Z,48.17
2022-11-26T22:19:02.434Z,48.47
2022-11-26T22:21:40.158Z,49.00
2022-11-26T22:24:11.979Z,44.57
2022-11-26T22:26:39.769Z,53.10
2022-11-26T22:29:07.699Z,43.67
2022-11-26T22:31:37.970Z,47.63
2022-11-26T22:34:18.660Z,52.10
2022-11-26T22:36:46.200Z,50.53
2022-11-26T22:39:16.932Z,49.33
2022-11-26T22:41:46.231Z,43.33
2022-11-26T22:44:15.820Z,42.33
2022-11-26T22:46:43.739Z,44.93
2022-11-26T22:49:15.998Z,47.80
2022-11-26T22:51:43.751Z,43.07
2022-11-26T22:54:14.326Z,42.10
2022-11-26T22:56:42.485Z,48.80
2022-11-26T22:59:13.420Z,46.23
2022-11-26T23:01:41.073Z,51.83
2022-11-26T23:04:10.868Z,41.40
2022-11-26T23:06:40.428Z,41.73
2022-11-26T23:09:09.782Z,43.53
2022-11-26T23:11:40.603Z,36.77
2022-11-26T23:14:09.770Z,47.87
2022-11-26T23:16:39.976Z,46.40
2022-11-26T23:19:07.833Z,47.73
2022-11-26T23:21:40.513Z,48.30
2022-11-26T23:24:09.261Z,43.43
2022-11-26T23:26:39.160Z,46.83
2022-11-26T23:29:08.118Z,48.60
2022-11-26T23:31:45.456Z,45.17
2022-11-26T23:34:13.440Z,44.77
2022-11-26T23:36:41.314Z,52.60
2022-11-26T23:39:12.175Z,44.03
2022-11-26T23:41:39.793Z,51.00
2022-11-26T23:44:07.339Z,39.80
2022-11-26T23:46:37.742Z,43.20
2022-11-26T23:49:05.305Z,39.93
2022-11-26T23:51:34.045Z,44.50
2022-11-26T23:54:01.570Z,38.83
2022-11-26T23:56:32.716Z,42.80
2022-11-26T23:59:03.093Z,37.47
